sensor_id;sensor_type;location;lat;lon;timestamp;P1;durP1;ratioP1;P2;durP2;ratioP2
48823;SDS011;34640;53.590;10.054;2022-08-19T00:01:15;14.15;;;10.48;;
48823;SDS011;34640;53.590;10.054;2022-08-19T00:04:37;19.52;;;12.30;;
48823;SDS011;34640;53.590;10.054;2022-08-19T00:07:49;17.27;;;12.40;;
48823;SDS011;34640;53.590;10.054;2022-08-19T00:11:01;24.92;;;15.50;;
48823;SDS011;34640;53.590;10.054;2022-08-19T00:14:14;20.38;;;13.38;;
48823;SDS011;34640;53.590;10.054;2022-08-19T00:17:26;26.15;;;14.98;;
48823;SDS011;34640;53.590;10.054;2022-08-19T00:20:36;31.17;;;16.55;;
48823;SDS011;34640;53.590;10.054;2022-08-19T00:23:48;27.13;;;16.63;;
48823;SDS011;34640;53.590;10.054;2022-08-19T00:27:00;30.85;;;19.83;;
48823;SDS011;34640;53.590;10.054;2022-08-19T00:30:30;29.27;;;18.65;;
48823;SDS011;34640;53.590;10.054;2022-08-19T00:33:41;31.63;;;18.17;;
48823;SDS011;34640;53.590;10.054;2022-08-19T00:36:52;29.58;;;18.08;;
48823;SDS011;34640;53.590;10.054;2022-08-19T00:40:03;31.60;;;18.55;;
48823;SDS011;34640;53.590;10.054;2022-08-19T00:43:19;29.00;;;15.15;;
48823;SDS011;34640;53.590;10.054;2022-08-19T00:46:32;29.92;;;17.25;;
48823;SDS011;34640;53.590;10.054;2022-08-19T00:49:45;34.72;;;17.60;;
48823;SDS011;34640;53.590;10.054;2022-08-19T00:53:00;29.85;;;18.30;;
48823;SDS011;34640;53.590;10.054;2022-08-19T00:56:12;29.70;;;18.40;;
48823;SDS011;34640;53.590;10.054;2022-08-19T00:59:25;28.75;;;17.80;;
48823;SDS011;34640;53.590;10.054;2022-08-19T01:02:57;31.98;;;18.00;;
48823;SDS011;34640;53.590;10.054;2022-08-19T01:06:07;36.35;;;17.67;;
48823;SDS011;34640;53.590;10.054;2022-08-19T01:09:18;37.70;;;18.45;;
48823;SDS011;34640;53.590;10.054;2022-08-19T01:12:28;28.00;;;17.63;;
48823;SDS011;34640;53.590;10.054;2022-08-19T01:15:40;32.63;;;17.48;;
48823;SDS011;34640;53.590;10.054;2022-08-19T01:18:53;28.80;;;16.92;;
48823;SDS011;34640;53.590;10.054;2022-08-19T01:22:06;28.08;;;15.13;;
48823;SDS011;34640;53.590;10.054;2022-08-19T01:25:26;31.23;;;16.23;;
48823;SDS011;34640;53.590;10.054;2022-08-19T01:28:41;30.75;;;16.95;;
48823;SDS011;34640;53.590;10.054;2022-08-19T01:31:53;32.08;;;18.52;;
48823;SDS011;34640;53.590;10.054;2022-08-19T01:35:04;30.98;;;17.70;;
48823;SDS011;34640;53.590;10.054;2022-08-19T01:38:19;24.48;;;15.40;;
48823;SDS011;34640;53.590;10.054;2022-08-19T01:41:33;30.52;;;17.58;;
48823;SDS011;34640;53.590;10.054;2022-08-19T01:44:44;27.90;;;15.20;;
48823;SDS011;34640;53.590;10.054;2022-08-19T01:47:54;28.27;;;15.88;;
48823;SDS011;34640;53.590;10.054;2022-08-19T01:51:10;26.85;;;14.98;;
48823;SDS011;34640;53.590;10.054;2022-08-19T01:54:21;26.48;;;14.82;;
48823;SDS011;34640;53.590;10.054;2022-08-19T01:57:37;25.35;;;14.65;;
48823;SDS011;34640;53.590;10.054;2022-08-19T02:00:49;25.90;;;15.35;;
48823;SDS011;34640;53.590;10.054;2022-08-19T02:04:00;23.90;;;15.55;;
48823;SDS011;34640;53.590;10.054;2022-08-19T02:07:10;27.10;;;16.73;;
48823;SDS011;34640;53.590;10.054;2022-08-19T02:10:21;29.23;;;17.60;;
48823;SDS011;34640;53.590;10.054;2022-08-19T02:13:33;27.58;;;16.85;;
48823;SDS011;34640;53.590;10.054;2022-08-19T02:16:44;33.55;;;19.00;;
48823;SDS011;34640;53.590;10.054;2022-08-19T02:19:55;33.55;;;17.75;;
48823;SDS011;34640;53.590;10.054;2022-08-19T02:23:05;38.60;;;18.58;;
48823;SDS011;34640;53.590;10.054;2022-08-19T02:26:23;31.35;;;17.98;;
48823;SDS011;34640;53.590;10.054;2022-08-19T02:29:35;33.78;;;18.45;;
48823;SDS011;34640;53.590;10.054;2022-08-19T02:32:46;36.67;;;17.85;;
48823;SDS011;34640;53.590;10.054;2022-08-19T02:35:56;32.00;;;17.52;;
48823;SDS011;34640;53.590;10.054;2022-08-19T02:39:07;36.78;;;17.65;;
48823;SDS011;34640;53.590;10.054;2022-08-19T02:42:17;37.00;;;17.25;;
48823;SDS011;34640;53.590;10.054;2022-08-19T02:45:30;32.38;;;18.10;;
48823;SDS011;34640;53.590;10.054;2022-08-19T02:48:42;36.17;;;18.63;;
48823;SDS011;34640;53.590;10.054;2022-08-19T02:51:52;35.80;;;19.58;;
48823;SDS011;34640;53.590;10.054;2022-08-19T02:55:03;40.83;;;21.08;;
48823;SDS011;34640;53.590;10.054;2022-08-19T02:58:15;37.58;;;19.50;;
48823;SDS011;34640;53.590;10.054;2022-08-19T03:01:30;43.75;;;19.42;;
48823;SDS011;34640;53.590;10.054;2022-08-19T03:04:41;40.38;;;19.40;;
48823;SDS011;34640;53.590;10.054;2022-08-19T03:07:52;49.47;;;20.02;;
48823;SDS011;34640;53.590;10.054;2022-08-19T03:11:03;46.97;;;21.48;;
48823;SDS011;34640;53.590;10.054;2022-08-19T03:14:14;44.65;;;20.88;;
48823;SDS011;34640;53.590;10.054;2022-08-19T03:17:28;48.00;;;20.98;;
48823;SDS011;34640;53.590;10.054;2022-08-19T03:20:41;43.17;;;21.10;;
48823;SDS011;34640;53.590;10.054;2022-08-19T03:23:53;41.45;;;20.38;;
48823;SDS011;34640;53.590;10.054;2022-08-19T03:27:04;37.50;;;18.38;;
48823;SDS011;34640;53.590;10.054;2022-08-19T03:30:14;42.42;;;19.58;;
48823;SDS011;34640;53.590;10.054;2022-08-19T03:33:34;39.78;;;20.02;;
48823;SDS011;34640;53.590;10.054;2022-08-19T03:36:45;38.78;;;18.33;;
48823;SDS011;34640;53.590;10.054;2022-08-19T03:39:56;35.75;;;18.85;;
48823;SDS011;34640;53.590;10.054;2022-08-19T03:43:07;42.95;;;19.13;;
48823;SDS011;34640;53.590;10.054;2022-08-19T03:46:17;41.45;;;19.52;;
48823;SDS011;34640;53.590;10.054;2022-08-19T03:49:32;46.67;;;20.35;;
48823;SDS011;34640;53.590;10.054;2022-08-19T03:52:47;42.53;;;20.27;;
48823;SDS011;34640;53.590;10.054;2022-08-19T03:55:59;43.58;;;19.85;;
48823;SDS011;34640;53.590;10.054;2022-08-19T03:59:10;48.40;;;19.98;;
48823;SDS011;34640;53.590;10.054;2022-08-19T04:02:23;57.05;;;21.13;;
48823;SDS011;34640;53.590;10.054;2022-08-19T04:05:35;41.47;;;20.15;;
48823;SDS011;34640;53.590;10.054;2022-08-19T04:08:47;54.92;;;21.83;;
48823;SDS011;34640;53.590;10.054;2022-08-19T04:11:58;45.72;;;19.35;;
48823;SDS011;34640;53.590;10.054;2022-08-19T04:15:09;44.95;;;19.60;;
48823;SDS011;34640;53.590;10.054;2022-08-19T04:18:21;54.53;;;20.50;;
48823;SDS011;34640;53.590;10.054;2022-08-19T04:21:34;39.78;;;18.70;;
48823;SDS011;34640;53.590;10.054;2022-08-19T04:24:44;42.88;;;17.88;;
48823;SDS011;34640;53.590;10.054;2022-08-19T04:27:55;39.67;;;18.88;;
48823;SDS011;34640;53.590;10.054;2022-08-19T04:31:05;43.05;;;19.17;;
48823;SDS011;34640;53.590;10.054;2022-08-19T04:34:10;38.53;;;19.73;;
48823;SDS011;34640;53.590;10.054;2022-08-19T04:37:24;37.17;;;18.30;;
48823;SDS011;34640;53.590;10.054;2022-08-19T04:40:43;37.13;;;20.02;;
48823;SDS011;34640;53.590;10.054;2022-08-19T04:44:14;38.78;;;19.48;;
48823;SDS011;34640;53.590;10.054;2022-08-19T04:47:26;46.65;;;21.80;;
48823;SDS011;34640;53.590;10.054;2022-08-19T04:50:57;46.53;;;21.08;;
48823;SDS011;34640;53.590;10.054;2022-08-19T04:54:10;48.80;;;22.58;;
48823;SDS011;34640;53.590;10.054;2022-08-19T04:57:20;45.33;;;22.58;;
48823;SDS011;34640;53.590;10.054;2022-08-19T05:00:31;45.83;;;23.88;;
48823;SDS011;34640;53.590;10.054;2022-08-19T05:03:45;47.67;;;24.15;;
48823;SDS011;34640;53.590;10.054;2022-08-19T05:06:56;52.03;;;23.08;;
48823;SDS011;34640;53.590;10.054;2022-08-19T05:10:11;56.70;;;25.55;;
48823;SDS011;34640;53.590;10.054;2022-08-19T05:13:21;54.05;;;25.15;;
48823;SDS011;34640;53.590;10.054;2022-08-19T05:16:32;50.97;;;25.08;;
48823;SDS011;34640;53.590;10.054;2022-08-19T05:19:43;58.78;;;27.67;;
48823;SDS011;34640;53.590;10.054;2022-08-19T05:23:11;46.95;;;25.48;;
48823;SDS011;34640;53.590;10.054;2022-08-19T05:26:31;49.58;;;25.60;;
48823;SDS011;34640;53.590;10.054;2022-08-19T05:29:42;51.70;;;26.20;;
48823;SDS011;34640;53.590;10.054;2022-08-19T05:32:52;61.25;;;27.98;;
48823;SDS011;34640;53.590;10.054;2022-08-19T05:36:04;64.38;;;26.20;;
48823;SDS011;34640;53.590;10.054;2022-08-19T05:39:17;53.10;;;26.50;;
48823;SDS011;34640;53.590;10.054;2022-08-19T05:42:30;52.75;;;25.95;;
48823;SDS011;34640;53.590;10.054;2022-08-19T05:45:41;55.92;;;28.45;;
48823;SDS011;34640;53.590;10.054;2022-08-19T05:48:52;52.63;;;25.80;;
48823;SDS011;34640;53.590;10.054;2022-08-19T05:52:06;54.97;;;25.77;;
48823;SDS011;34640;53.590;10.054;2022-08-19T05:55:17;55.10;;;26.70;;
48823;SDS011;34640;53.590;10.054;2022-08-19T05:58:30;51.05;;;26.67;;
48823;SDS011;34640;53.590;10.054;2022-08-19T06:01:42;60.95;;;27.58;;
48823;SDS011;34640;53.590;10.054;2022-08-19T06:04:55;53.03;;;26.95;;
48823;SDS011;34640;53.590;10.054;2022-08-19T06:08:05;46.35;;;24.58;;
48823;SDS011;34640;53.590;10.054;2022-08-19T06:11:19;48.15;;;25.50;;
48823;SDS011;34640;53.590;10.054;2022-08-19T06:14:33;48.20;;;25.88;;
48823;SDS011;34640;53.590;10.054;2022-08-19T06:17:48;50.42;;;24.55;;
48823;SDS011;34640;53.590;10.054;2022-08-19T06:20:59;47.53;;;25.40;;
48823;SDS011;34640;53.590;10.054;2022-08-19T06:24:13;45.05;;;24.27;;
48823;SDS011;34640;53.590;10.054;2022-08-19T06:27:26;50.95;;;23.90;;
48823;SDS011;34640;53.590;10.054;2022-08-19T06:30:39;47.72;;;23.33;;
48823;SDS011;34640;53.590;10.054;2022-08-19T06:33:50;50.10;;;22.88;;
48823;SDS011;34640;53.590;10.054;2022-08-19T06:37:01;49.40;;;23.75;;
48823;SDS011;34640;53.590;10.054;2022-08-19T06:40:12;41.72;;;23.30;;
48823;SDS011;34640;53.590;10.054;2022-08-19T06:43:23;49.58;;;25.27;;
48823;SDS011;34640;53.590;10.054;2022-08-19T06:46:39;46.88;;;24.92;;
48823;SDS011;34640;53.590;10.054;2022-08-19T06:49:52;48.50;;;25.67;;
48823;SDS011;34640;53.590;10.054;2022-08-19T06:53:09;49.30;;;25.33;;
48823;SDS011;34640;53.590;10.054;2022-08-19T06:56:23;51.70;;;25.40;;
48823;SDS011;34640;53.590;10.054;2022-08-19T06:59:39;50.25;;;24.88;;
48823;SDS011;34640;53.590;10.054;2022-08-19T07:02:51;54.35;;;26.33;;
48823;SDS011;34640;53.590;10.054;2022-08-19T07:06:10;47.58;;;25.63;;
48823;SDS011;34640;53.590;10.054;2022-08-19T07:09:44;52.40;;;25.85;;
48823;SDS011;34640;53.590;10.054;2022-08-19T07:13:08;54.47;;;26.75;;
48823;SDS011;34640;53.590;10.054;2022-08-19T07:16:19;52.97;;;26.17;;
48823;SDS011;34640;53.590;10.054;2022-08-19T07:19:39;52.13;;;27.10;;
48823;SDS011;34640;53.590;10.054;2022-08-19T07:22:51;59.97;;;28.67;;
48823;SDS011;34640;53.590;10.054;2022-08-19T07:26:05;52.72;;;26.00;;
48823;SDS011;34640;53.590;10.054;2022-08-19T07:29:16;55.78;;;26.63;;
48823;SDS011;34640;53.590;10.054;2022-08-19T07:32:27;56.22;;;26.42;;
48823;SDS011;34640;53.590;10.054;2022-08-19T07:35:41;55.58;;;28.10;;
48823;SDS011;34640;53.590;10.054;2022-08-19T07:38:52;53.45;;;26.88;;
48823;SDS011;34640;53.590;10.054;2022-08-19T07:42:04;54.58;;;25.20;;
48823;SDS011;34640;53.590;10.054;2022-08-19T07:45:16;55.50;;;25.52;;
48823;SDS011;34640;53.590;10.054;2022-08-19T07:48:28;51.22;;;25.42;;
48823;SDS011;34640;53.590;10.054;2022-08-19T07:51:40;43.78;;;23.52;;
48823;SDS011;34640;53.590;10.054;2022-08-19T07:54:50;46.15;;;24.40;;
48823;SDS011;34640;53.590;10.054;2022-08-19T07:58:01;43.65;;;23.55;;
48823;SDS011;34640;53.590;10.054;2022-08-19T08:01:17;42.58;;;22.90;;
48823;SDS011;34640;53.590;10.054;2022-08-19T08:04:29;49.17;;;25.35;;
48823;SDS011;34640;53.590;10.054;2022-08-19T08:08:10;47.72;;;24.02;;
48823;SDS011;34640;53.590;10.054;2022-08-19T08:11:53;47.97;;;22.38;;
48823;SDS011;34640;53.590;10.054;2022-08-19T08:15:13;46.65;;;23.65;;
48823;SDS011;34640;53.590;10.054;2022-08-19T08:18:27;45.35;;;23.85;;
48823;SDS011;34640;53.590;10.054;2022-08-19T08:21:38;43.70;;;22.92;;
48823;SDS011;34640;53.590;10.054;2022-08-19T08:24:54;39.63;;;21.40;;
48823;SDS011;34640;53.590;10.054;2022-08-19T08:28:06;42.58;;;20.75;;
48823;SDS011;34640;53.590;10.054;2022-08-19T08:31:25;38.70;;;20.90;;
48823;SDS011;34640;53.590;10.054;2022-08-19T08:34:37;33.58;;;18.25;;
48823;SDS011;34640;53.590;10.054;2022-08-19T08:37:48;37.38;;;19.77;;
48823;SDS011;34640;53.590;10.054;2022-08-19T08:41:04;34.90;;;18.65;;
48823;SDS011;34640;53.590;10.054;2022-08-19T08:44:20;35.45;;;18.38;;
48823;SDS011;34640;53.590;10.054;2022-08-19T08:47:34;31.08;;;17.23;;
48823;SDS011;34640;53.590;10.054;2022-08-19T08:50:50;33.40;;;17.08;;
48823;SDS011;34640;53.590;10.054;2022-08-19T08:54:05;34.88;;;17.35;;
48823;SDS011;34640;53.590;10.054;2022-08-19T08:57:20;30.45;;;17.73;;
48823;SDS011;34640;53.590;10.054;2022-08-19T09:00:44;35.63;;;17.73;;
48823;SDS011;34640;53.590;10.054;2022-08-19T09:03:56;33.90;;;17.70;;
48823;SDS011;34640;53.590;10.054;2022-08-19T09:07:20;31.50;;;16.40;;
48823;SDS011;34640;53.590;10.054;2022-08-19T09:10:44;35.38;;;17.55;;
48823;SDS011;34640;53.590;10.054;2022-08-19T09:14:07;29.13;;;16.60;;
48823;SDS011;34640;53.590;10.054;2022-08-19T09:17:41;31.70;;;16.02;;
48823;SDS011;34640;53.590;10.054;2022-08-19T09:20:57;32.00;;;16.83;;
48823;SDS011;34640;53.590;10.054;2022-08-19T09:24:08;36.38;;;18.55;;
48823;SDS011;34640;53.590;10.054;2022-08-19T09:27:19;31.48;;;16.27;;
48823;SDS011;34640;53.590;10.054;2022-08-19T09:30:53;36.67;;;15.90;;
48823;SDS011;34640;53.590;10.054;2022-08-19T09:34:03;31.13;;;16.05;;
48823;SDS011;34640;53.590;10.054;2022-08-19T09:37:14;30.58;;;16.35;;
48823;SDS011;34640;53.590;10.054;2022-08-19T09:40:25;31.50;;;16.83;;
48823;SDS011;34640;53.590;10.054;2022-08-19T09:43:39;29.98;;;16.42;;
48823;SDS011;34640;53.590;10.054;2022-08-19T09:46:57;35.28;;;16.90;;
48823;SDS011;34640;53.590;10.054;2022-08-19T09:50:08;30.40;;;16.67;;
48823;SDS011;34640;53.590;10.054;2022-08-19T09:53:25;33.25;;;15.52;;
48823;SDS011;34640;53.590;10.054;2022-08-19T09:56:39;36.20;;;15.18;;
48823;SDS011;34640;53.590;10.054;2022-08-19T09:59:50;28.05;;;15.13;;
48823;SDS011;34640;53.590;10.054;2022-08-19T10:03:01;28.40;;;13.82;;
48823;SDS011;34640;53.590;10.054;2022-08-19T10:06:15;29.05;;;13.82;;
48823;SDS011;34640;53.590;10.054;2022-08-19T10:09:45;29.20;;;13.48;;
48823;SDS011;34640;53.590;10.054;2022-08-19T10:12:55;30.48;;;14.63;;
48823;SDS011;34640;53.590;10.054;2022-08-19T10:16:07;25.55;;;13.85;;
48823;SDS011;34640;53.590;10.054;2022-08-19T10:19:21;29.05;;;13.65;;
48823;SDS011;34640;53.590;10.054;2022-08-19T10:22:34;39.22;;;14.93;;
48823;SDS011;34640;53.590;10.054;2022-08-19T10:25:46;28.75;;;14.48;;
48823;SDS011;34640;53.590;10.054;2022-08-19T10:28:56;25.67;;;12.48;;
48823;SDS011;34640;53.590;10.054;2022-08-19T10:32:09;32.90;;;14.32;;
48823;SDS011;34640;53.590;10.054;2022-08-19T10:35:23;25.75;;;13.35;;
48823;SDS011;34640;53.590;10.054;2022-08-19T10:38:35;27.88;;;12.75;;
48823;SDS011;34640;53.590;10.054;2022-08-19T10:41:46;24.95;;;13.90;;
48823;SDS011;34640;53.590;10.054;2022-08-19T10:44:56;32.13;;;14.52;;
48823;SDS011;34640;53.590;10.054;2022-08-19T10:48:09;29.08;;;13.13;;
48823;SDS011;34640;53.590;10.054;2022-08-19T10:54:57;28.60;;;14.43;;
48823;SDS011;34640;53.590;10.054;2022-08-19T10:58:24;28.98;;;13.95;;
48823;SDS011;34640;53.590;10.054;2022-08-19T11:01:35;31.17;;;16.00;;
48823;SDS011;34640;53.590;10.054;2022-08-19T11:04:45;32.47;;;16.00;;
48823;SDS011;34640;53.590;10.054;2022-08-19T11:08:00;30.38;;;15.73;;
48823;SDS011;34640;53.590;10.054;2022-08-19T11:11:30;28.92;;;16.30;;
48823;SDS011;34640;53.590;10.054;2022-08-19T11:14:47;28.70;;;16.00;;
48823;SDS011;34640;53.590;10.054;2022-08-19T11:17:58;30.23;;;15.85;;
48823;SDS011;34640;53.590;10.054;2022-08-19T11:21:09;32.63;;;16.33;;
48823;SDS011;34640;53.590;10.054;2022-08-19T11:24:23;29.75;;;15.85;;
48823;SDS011;34640;53.590;10.054;2022-08-19T11:27:37;30.02;;;15.38;;
48823;SDS011;34640;53.590;10.054;2022-08-19T11:30:51;29.08;;;15.63;;
48823;SDS011;34640;53.590;10.054;2022-08-19T11:34:03;28.52;;;16.50;;
48823;SDS011;34640;53.590;10.054;2022-08-19T11:37:16;33.88;;;17.33;;
48823;SDS011;34640;53.590;10.054;2022-08-19T11:40:27;28.88;;;16.40;;
48823;SDS011;34640;53.590;10.054;2022-08-19T11:43:38;26.75;;;14.20;;
48823;SDS011;34640;53.590;10.054;2022-08-19T11:46:48;23.98;;;14.25;;
48823;SDS011;34640;53.590;10.054;2022-08-19T11:49:58;23.52;;;13.20;;
48823;SDS011;34640;53.590;10.054;2022-08-19T11:53:09;22.45;;;13.80;;
48823;SDS011;34640;53.590;10.054;2022-08-19T11:56:21;24.35;;;13.20;;
48823;SDS011;34640;53.590;10.054;2022-08-19T11:59:33;21.40;;;12.68;;
48823;SDS011;34640;53.590;10.054;2022-08-19T12:02:43;22.25;;;12.55;;
48823;SDS011;34640;53.590;10.054;2022-08-19T12:05:53;21.13;;;12.18;;
48823;SDS011;34640;53.590;10.054;2022-08-19T12:09:05;22.27;;;12.43;;
48823;SDS011;34640;53.590;10.054;2022-08-19T12:12:18;18.05;;;11.40;;
48823;SDS011;34640;53.590;10.054;2022-08-19T12:15:30;16.45;;;10.32;;
48823;SDS011;34640;53.590;10.054;2022-08-19T12:18:45;19.60;;;11.48;;
48823;SDS011;34640;53.590;10.054;2022-08-19T12:21:58;17.98;;;10.60;;
48823;SDS011;34640;53.590;10.054;2022-08-19T12:25:10;22.80;;;11.75;;
48823;SDS011;34640;53.590;10.054;2022-08-19T12:28:23;16.23;;;10.23;;
48823;SDS011;34640;53.590;10.054;2022-08-19T12:31:34;23.15;;;11.82;;
48823;SDS011;34640;53.590;10.054;2022-08-19T12:34:44;18.98;;;10.77;;
48823;SDS011;34640;53.590;10.054;2022-08-19T12:37:55;14.82;;;9.93;;
48823;SDS011;34640;53.590;10.054;2022-08-19T12:41:09;17.60;;;10.90;;
48823;SDS011;34640;53.590;10.054;2022-08-19T12:44:23;19.08;;;11.48;;
48823;SDS011;34640;53.590;10.054;2022-08-19T12:47:37;18.70;;;10.77;;
48823;SDS011;34640;53.590;10.054;2022-08-19T12:50:51;14.55;;;10.65;;
48823;SDS011;34640;53.590;10.054;2022-08-19T12:54:02;17.50;;;11.18;;
48823;SDS011;34640;53.590;10.054;2022-08-19T12:57:13;17.55;;;10.57;;
48823;SDS011;34640;53.590;10.054;2022-08-19T13:00:26;16.33;;;11.60;;
48823;SDS011;34640;53.590;10.054;2022-08-19T13:03:36;14.32;;;10.45;;
48823;SDS011;34640;53.590;10.054;2022-08-19T13:06:48;16.67;;;10.82;;
48823;SDS011;34640;53.590;10.054;2022-08-19T13:09:58;15.80;;;10.82;;
48823;SDS011;34640;53.590;10.054;2022-08-19T13:13:09;15.23;;;10.30;;
48823;SDS011;34640;53.590;10.054;2022-08-19T13:16:21;14.63;;;10.10;;
48823;SDS011;34640;53.590;10.054;2022-08-19T13:19:32;15.98;;;10.68;;
48823;SDS011;34640;53.590;10.054;2022-08-19T13:22:42;18.25;;;10.85;;
48823;SDS011;34640;53.590;10.054;2022-08-19T13:25:56;15.05;;;10.63;;
48823;SDS011;34640;53.590;10.054;2022-08-19T13:29:07;14.32;;;9.73;;
48823;SDS011;34640;53.590;10.054;2022-08-19T13:32:36;14.90;;;9.30;;
48823;SDS011;34640;53.590;10.054;2022-08-19T13:36:05;15.10;;;9.88;;
48823;SDS011;34640;53.590;10.054;2022-08-19T13:39:16;12.15;;;8.60;;
48823;SDS011;34640;53.590;10.054;2022-08-19T13:42:26;16.50;;;9.85;;
48823;SDS011;34640;53.590;10.054;2022-08-19T13:45:40;15.98;;;9.65;;
48823;SDS011;34640;53.590;10.054;2022-08-19T13:48:52;20.83;;;10.25;;
48823;SDS011;34640;53.590;10.054;2022-08-19T13:52:03;18.30;;;10.95;;
48823;SDS011;34640;53.590;10.054;2022-08-19T13:55:15;15.68;;;9.60;;
48823;SDS011;34640;53.590;10.054;2022-08-19T14:01:43;14.80;;;9.57;;
48823;SDS011;34640;53.590;10.054;2022-08-19T14:04:55;13.88;;;10.23;;
48823;SDS011;34640;53.590;10.054;2022-08-19T14:08:06;14.70;;;9.65;;
48823;SDS011;34640;53.590;10.054;2022-08-19T14:11:18;13.63;;;9.70;;
48823;SDS011;34640;53.590;10.054;2022-08-19T14:14:28;14.57;;;8.70;;
48823;SDS011;34640;53.590;10.054;2022-08-19T14:17:38;12.50;;;9.00;;
48823;SDS011;34640;53.590;10.054;2022-08-19T14:20:53;11.15;;;8.13;;
48823;SDS011;34640;53.590;10.054;2022-08-19T14:24:04;12.13;;;9.75;;
48823;SDS011;34640;53.590;10.054;2022-08-19T14:27:15;15.60;;;8.95;;
48823;SDS011;34640;53.590;10.054;2022-08-19T14:30:26;13.18;;;9.20;;
48823;SDS011;34640;53.590;10.054;2022-08-19T14:33:38;14.35;;;10.52;;
48823;SDS011;34640;53.590;10.054;2022-08-19T14:36:51;15.60;;;10.82;;
48823;SDS011;34640;53.590;10.054;2022-08-19T14:40:02;18.02;;;10.45;;
48823;SDS011;34640;53.590;10.054;2022-08-19T14:43:13;15.45;;;11.20;;
48823;SDS011;34640;53.590;10.054;2022-08-19T14:46:27;13.60;;;9.70;;
48823;SDS011;34640;53.590;10.054;2022-08-19T14:49:38;14.70;;;10.73;;
48823;SDS011;34640;53.590;10.054;2022-08-19T14:53:01;14.20;;;11.02;;
48823;SDS011;34640;53.590;10.054;2022-08-19T14:56:21;13.18;;;9.85;;
48823;SDS011;34640;53.590;10.054;2022-08-19T14:59:33;14.68;;;10.82;;
48823;SDS011;34640;53.590;10.054;2022-08-19T15:02:44;17.92;;;9.57;;
48823;SDS011;34640;53.590;10.054;2022-08-19T15:05:55;13.82;;;10.98;;
48823;SDS011;34640;53.590;10.054;2022-08-19T15:09:08;11.77;;;9.23;;
48823;SDS011;34640;53.590;10.054;2022-08-19T15:12:19;13.55;;;10.60;;
48823;SDS011;34640;53.590;10.054;2022-08-19T15:15:30;21.70;;;13.10;;
48823;SDS011;34640;53.590;10.054;2022-08-19T15:18:40;14.40;;;10.63;;
48823;SDS011;34640;53.590;10.054;2022-08-19T15:21:53;15.57;;;11.00;;
48823;SDS011;34640;53.590;10.054;2022-08-19T15:25:07;15.50;;;10.27;;
48823;SDS011;34640;53.590;10.054;2022-08-19T15:28:19;13.30;;;9.43;;
48823;SDS011;34640;53.590;10.054;2022-08-19T15:31:30;13.43;;;9.02;;
48823;SDS011;34640;53.590;10.054;2022-08-19T15:34:46;18.25;;;10.80;;
48823;SDS011;34640;53.590;10.054;2022-08-19T15:37:57;16.80;;;10.05;;
48823;SDS011;34640;53.590;10.054;2022-08-19T15:44:32;16.17;;;10.20;;
48823;SDS011;34640;53.590;10.054;2022-08-19T15:47:43;11.75;;;9.38;;
48823;SDS011;34640;53.590;10.054;2022-08-19T15:50:53;14.07;;;9.35;;
48823;SDS011;34640;53.590;10.054;2022-08-19T15:54:06;14.60;;;9.50;;
48823;SDS011;34640;53.590;10.054;2022-08-19T15:57:20;11.48;;;9.18;;
48823;SDS011;34640;53.590;10.054;2022-08-19T16:00:48;13.05;;;8.90;;
48823;SDS011;34640;53.590;10.054;2022-08-19T16:04:21;13.48;;;8.43;;
48823;SDS011;34640;53.590;10.054;2022-08-19T16:07:48;10.27;;;8.85;;
48823;SDS011;34640;53.590;10.054;2022-08-19T16:10:59;11.52;;;8.75;;
48823;SDS011;34640;53.590;10.054;2022-08-19T16:14:10;10.88;;;8.35;;
48823;SDS011;34640;53.590;10.054;2022-08-19T16:17:20;11.10;;;8.07;;
48823;SDS011;34640;53.590;10.054;2022-08-19T16:20:31;14.23;;;8.40;;
48823;SDS011;34640;53.590;10.054;2022-08-19T16:23:44;9.75;;;8.10;;
48823;SDS011;34640;53.590;10.054;2022-08-19T16:26:55;13.75;;;8.05;;
48823;SDS011;34640;53.590;10.054;2022-08-19T16:30:08;10.80;;;7.60;;
48823;SDS011;34640;53.590;10.054;2022-08-19T16:33:19;10.85;;;7.75;;
48823;SDS011;34640;53.590;10.054;2022-08-19T16:36:31;10.70;;;7.45;;
48823;SDS011;34640;53.590;10.054;2022-08-19T16:39:42;9.60;;;7.55;;
48823;SDS011;34640;53.590;10.054;2022-08-19T16:42:53;9.70;;;7.53;;
48823;SDS011;34640;53.590;10.054;2022-08-19T16:46:06;10.70;;;7.25;;
48823;SDS011;34640;53.590;10.054;2022-08-19T16:49:17;9.60;;;6.95;;
48823;SDS011;34640;53.590;10.054;2022-08-19T16:52:48;9.85;;;7.55;;
48823;SDS011;34640;53.590;10.054;2022-08-19T16:55:58;10.98;;;7.40;;
48823;SDS011;34640;53.590;10.054;2022-08-19T16:59:09;10.32;;;7.22;;
48823;SDS011;34640;53.590;10.054;2022-08-19T17:02:23;8.38;;;6.40;;
48823;SDS011;34640;53.590;10.054;2022-08-19T17:05:40;10.38;;;7.00;;
48823;SDS011;34640;53.590;10.054;2022-08-19T17:08:53;7.40;;;6.60;;
48823;SDS011;34640;53.590;10.054;2022-08-19T17:12:06;8.65;;;6.55;;
48823;SDS011;34640;53.590;10.054;2022-08-19T17:15:17;9.05;;;6.95;;
48823;SDS011;34640;53.590;10.054;2022-08-19T17:18:29;9.00;;;7.07;;
48823;SDS011;34640;53.590;10.054;2022-08-19T17:21:41;10.32;;;6.93;;
48823;SDS011;34640;53.590;10.054;2022-08-19T17:24:51;11.80;;;7.78;;
48823;SDS011;34640;53.590;10.054;2022-08-19T17:28:07;9.88;;;7.10;;
48823;SDS011;34640;53.590;10.054;2022-08-19T17:31:19;12.73;;;7.47;;
48823;SDS011;34640;53.590;10.054;2022-08-19T17:34:33;9.57;;;6.63;;
48823;SDS011;34640;53.590;10.054;2022-08-19T17:37:43;10.07;;;7.55;;
48823;SDS011;34640;53.590;10.054;2022-08-19T17:40:54;12.85;;;9.02;;
48823;SDS011;34640;53.590;10.054;2022-08-19T17:44:09;9.60;;;7.00;;
48823;SDS011;34640;53.590;10.054;2022-08-19T17:47:19;10.40;;;7.13;;
48823;SDS011;34640;53.590;10.054;2022-08-19T17:50:31;13.00;;;8.55;;
48823;SDS011;34640;53.590;10.054;2022-08-19T17:53:43;10.02;;;8.10;;
48823;SDS011;34640;53.590;10.054;2022-08-19T17:56:53;12.13;;;7.63;;
48823;SDS011;34640;53.590;10.054;2022-08-19T18:00:04;11.48;;;8.40;;
48823;SDS011;34640;53.590;10.054;2022-08-19T18:03:17;12.60;;;7.97;;
48823;SDS011;34640;53.590;10.054;2022-08-19T18:06:29;11.50;;;8.50;;
48823;SDS011;34640;53.590;10.054;2022-08-19T18:09:40;15.35;;;8.43;;
48823;SDS011;34640;53.590;10.054;2022-08-19T18:12:57;15.85;;;8.65;;
48823;SDS011;34640;53.590;10.054;2022-08-19T18:16:08;11.38;;;7.75;;
48823;SDS011;34640;53.590;10.054;2022-08-19T18:19:20;11.80;;;8.40;;
48823;SDS011;34640;53.590;10.054;2022-08-19T18:22:33;10.73;;;7.38;;
48823;SDS011;34640;53.590;10.054;2022-08-19T18:25:45;10.15;;;8.20;;
48823;SDS011;34640;53.590;10.054;2022-08-19T18:28:55;13.65;;;8.65;;
48823;SDS011;34640;53.590;10.054;2022-08-19T18:32:06;12.13;;;9.02;;
48823;SDS011;34640;53.590;10.054;2022-08-19T18:35:21;11.15;;;8.40;;
48823;SDS011;34640;53.590;10.054;2022-08-19T18:38:39;14.63;;;9.63;;
48823;SDS011;34640;53.590;10.054;2022-08-19T18:42:14;15.45;;;9.35;;
48823;SDS011;34640;53.590;10.054;2022-08-19T18:45:42;14.23;;;10.43;;
48823;SDS011;34640;53.590;10.054;2022-08-19T18:49:15;14.98;;;10.68;;